Time;durP1;ratioP1;P1;durP2;ratioP2;P2;SDS_P1;SDS_P2;PMS_P1;PMS_P2;Temp;Humidity;BMP_temperature;BMP_pressure;BME280_temperature;BME280_humidity;BME280_pressure;Samples;Min_cycle;Max_cycle;Signal;HPM_P1;HPM_P2
2022/07/05 00:01:01;;;;;;;6.07;3.38;;;;;;;24.69;55.31;100119.41;5048903;28;20037;-65
2022/07/05 00:03:28;;;;;;;7.45;3.20;;;;;;;24.79;55.39;100136.16;5049637;28;20452;-65
2022/07/05 00:05:53;;;;;;;5.50;4.05;;;;;;;24.76;55.32;100133.88;5049448;28;20051;-65
2022/07/05 00:08:19;;;;;;;4.03;3.55;;;;;;;24.78;54.96;100131.75;5049524;28;20081;-64
2022/07/05 00:10:44;;;;;;;6.53;3.83;;;;;;;24.76;55.11;100136.63;5049622;28;20036;-65
2022/07/05 00:13:10;;;;;;;4.35;3.67;;;;;;;24.74;55.64;100135.19;5049473;28;20024;-66
2022/07/05 00:15:36;;;;;;;8.02;3.63;;;;;;;24.57;55.46;100107.53;5049410;28;20592;-65
2022/07/05 00:18:02;;;;;;;5.30;3.22;;;;;;;24.70;55.62;100126.59;5039015;28;20025;-64
2022/07/05 00:20:27;;;;;;;9.52;3.83;;;;;;;24.66;55.68;100128.09;5041957;28;20064;-64
2022/07/05 00:22:53;;;;;;;7.60;3.50;;;;;;;24.60;55.96;100126.25;5028467;28;20456;-64
2022/07/05 00:25:18;;;;;;;7.13;4.40;;;;;;;24.56;56.14;100129.69;5030890;28;20095;-64
2022/07/05 00:27:44;;;;;;;7.80;3.75;;;;;;;24.48;56.23;100119.88;5031798;28;20038;-65
2022/07/05 00:30:10;;;;;;;6.00;3.58;;;;;;;24.45;56.81;100114.84;5042122;28;20111;-65
2022/07/05 00:32:37;;;;;;;7.20;3.72;;;;;;;24.44;56.81;100116.75;5033235;28;20132;-65
2022/07/05 00:35:07;;;;;;;7.05;4.05;;;;;;;24.39;56.80;100113.00;5029545;28;20488;-65
2022/07/05 00:37:33;;;;;;;7.10;3.90;;;;;;;24.36;56.92;100117.06;5029340;28;20041;-64
2022/07/05 00:39:59;;;;;;;5.25;3.30;;;;;;;24.33;57.04;100108.44;5028984;28;20109;-64
2022/07/05 00:42:24;;;;;;;8.25;4.10;;;;;;;24.27;57.03;100114.81;5042444;28;20123;-64
2022/07/05 00:44:49;;;;;;;5.63;3.78;;;;;;;24.23;57.28;100110.88;5029187;28;20033;-65
2022/07/05 00:47:17;;;;;;;7.28;3.83;;;;;;;24.19;57.16;100098.69;5044861;28;20086;-63
2022/07/05 00:49:43;;;;;;;6.82;3.97;;;;;;;24.11;57.19;100091.59;5040551;28;20040;-64
2022/07/05 00:52:10;;;;;;;6.57;3.90;;;;;;;24.11;57.09;100094.34;5038869;28;20465;-65
2022/07/05 00:54:37;;;;;;;8.02;3.88;;;;;;;24.07;57.47;100090.41;5046989;28;20072;-64
2022/07/05 00:57:04;;;;;;;7.53;3.75;;;;;;;24.02;57.41;100079.25;5047507;28;20083;-64
2022/07/05 00:59:30;;;;;;;8.93;3.97;;;;;;;24.00;57.63;100092.38;5032557;28;20395;-65
2022/07/05 01:01:56;;;;;;;7.35;3.65;;;;;;;23.98;57.32;100099.97;5048833;28;21025;-63
2022/07/05 01:04:22;;;;;;;4.93;3.60;;;;;;;23.95;57.22;100103.16;5031641;28;20033;-64
2022/07/05 01:06:49;;;;;;;6.45;3.88;;;;;;;23.94;56.80;100106.97;5040747;28;20095;-66
2022/07/05 01:09:17;;;;;;;5.88;4.03;;;;;;;23.94;56.66;100111.59;5030131;28;20218;-64
2022/07/05 01:11:47;;;;;;;7.05;3.80;;;;;;;23.94;56.21;100114.34;5040741;28;20043;-64
2022/07/05 01:14:16;;;;;;;6.40;3.97;;;;;;;23.94;56.07;100112.44;5035437;28;20049;-64
2022/07/05 01:16:42;;;;;;;5.13;3.75;;;;;;;23.88;56.02;100096.88;5035554;28;20484;-65
2022/07/05 01:19:11;;;;;;;7.60;4.07;;;;;;;23.95;55.91;100105.91;5032605;28;20074;-65
2022/07/05 01:21:42;;;;;;;4.18;3.40;;;;;;;23.92;55.82;100106.31;5048966;28;20074;-64
2022/07/05 01:24:09;;;;;;;6.30;3.88;;;;;;;23.87;55.48;100102.59;5052481;28;20052;-65
2022/07/05 01:26:36;;;;;;;9.02;3.92;;;;;;;23.94;55.49;100115.19;5051467;28;20446;-65
2022/07/05 01:29:02;;;;;;;5.28;3.55;;;;;;;23.83;55.25;100093.97;5034327;28;20099;-64
2022/07/05 01:31:27;;;;;;;5.13;3.60;;;;;;;23.84;55.15;100100.28;5042799;28;20476;-65
2022/07/05 01:33:53;;;;;;;8.35;3.33;;;;;;;23.87;55.03;100119.88;5045557;28;20021;-65
2022/07/05 01:36:19;;;;;;;6.65;3.45;;;;;;;23.86;55.01;100123.66;5044486;28;20033;-64
2022/07/05 01:38:45;;;;;;;8.52;3.90;;;;;;;23.82;54.90;100114.22;5046054;28;20491;-63
2022/07/05 01:41:11;;;;;;;6.57;3.90;;;;;;;23.78;54.92;100114.88;5032347;28;20470;-64
2022/07/05 01:43:36;;;;;;;5.28;3.83;;;;;;;23.77;55.03;100127.72;5032542;28;20036;-65
2022/07/05 01:46:04;;;;;;;6.22;4.30;;;;;;;23.76;54.81;100131.53;5048676;28;20033;-65
2022/07/05 01:48:32;;;;;;;4.63;3.45;;;;;;;23.76;54.57;100128.00;5046972;28;20041;-65
2022/07/05 01:51:04;;;;;;;4.57;3.70;;;;;;;23.75;54.39;100138.09;5039107;28;20048;-64
2022/07/05 01:53:32;;;;;;;6.55;4.03;;;;;;;23.76;54.14;100142.50;5039680;28;20518;-65
2022/07/05 01:56:00;;;;;;;4.18;3.60;;;;;;;23.73;54.21;100139.38;5044661;28;20048;-64
2022/07/05 01:58:27;;;;;;;4.47;3.63;;;;;;;23.64;54.83;100133.31;5036256;28;20516;-65
2022/07/05 02:00:53;;;;;;;4.95;4.10;;;;;;;23.63;54.82;100134.41;5038725;28;20067;-65
2022/07/05 02:03:19;;;;;;;5.88;4.07;;;;;;;23.64;54.77;100129.75;5035942;28;20491;-64
2022/07/05 02:05:46;;;;;;;4.53;3.28;;;;;;;23.62;54.77;100148.31;5031969;28;20055;-65
2022/07/05 02:08:13;;;;;;;6.15;4.28;;;;;;;23.57;54.30;100139.94;5031926;28;20475;-64
2022/07/05 02:10:40;;;;;;;3.67;3.30;;;;;;;23.57;54.63;100145.41;5031988;28;20034;-64
2022/07/05 02:13:06;;;;;;;5.28;4.07;;;;;;;23.55;54.85;100139.31;5047420;28;20029;-64
2022/07/05 02:15:34;;;;;;;5.30;4.40;;;;;;;23.53;54.96;100142.28;5050421;28;20025;-64
2022/07/05 02:18:01;;;;;;;6.30;4.00;;;;;;;23.52;54.61;100137.88;5048428;28;20116;-64
2022/07/05 02:20:27;;;;;;;4.22;3.80;;;;;;;23.47;54.32;100113.03;5051403;28;20037;-64
2022/07/05 02:22:52;;;;;;;6.22;4.15;;;;;;;23.49;54.31;100127.34;5038389;28;20030;-65
2022/07/05 02:25:18;;;;;;;4.40;4.00;;;;;;;23.50;54.18;100128.16;5039200;28;20048;-64
2022/07/05 02:27:43;;;;;;;8.05;4.15;;;;;;;23.47;54.52;100126.72;5036726;28;20063;-64
2022/07/05 02:30:09;;;;;;;7.20;3.90;;;;;;;23.46;54.24;100121.47;5036636;28;20067;-64
2022/07/05 02:32:35;;;;;;;5.82;3.63;;;;;;;23.35;54.44;100109.38;5032542;28;20044;-64
2022/07/05 02:35:01;;;;;;;8.40;3.72;;;;;;;23.39;54.44;100117.94;5045637;28;20514;-65
2022/07/05 02:37:27;;;;;;;14.27;4.57;;;;;;;23.40;54.43;100125.94;5033584;28;20029;-64
2022/07/05 02:39:54;;;;;;;7.20;4.10;;;;;;;23.39;54.69;100128.91;5050758;28;20521;-64
2022/07/05 02:42:19;;;;;;;10.43;4.65;;;;;;;23.34;55.35;100124.09;5042302;28;20068;-64
2022/07/05 02:44:45;;;;;;;9.65;4.20;;;;;;;23.27;54.98;100116.97;5038318;28;20029;-63
2022/07/05 02:47:10;;;;;;;5.18;3.70;;;;;;;23.34;55.18;100124.09;5039112;28;20044;-65
2022/07/05 02:49:35;;;;;;;6.20;4.10;;;;;;;23.34;54.89;100124.09;5040492;28;20036;-64
2022/07/05 02:52:01;;;;;;;8.23;4.05;;;;;;;23.34;54.79;100124.09;5050746;28;20040;-65
2022/07/05 02:54:26;;;;;;;5.55;4.03;;;;;;;23.30;55.02;100128.34;5048212;28;20094;-64
2022/07/05 02:56:52;;;;;;;6.55;4.65;;;;;;;23.29;54.64;100121.19;5040254;28;20044;-64
2022/07/05 02:59:17;;;;;;;5.00;4.20;;;;;;;23.17;54.79;100105.66;5042843;28;20510;-65
2022/07/05 03:01:43;;;;;;;5.28;4.22;;;;;;;23.27;54.67;100130.66;5032780;28;20503;-64
2022/07/05 03:04:09;;;;;;;5.03;3.75;;;;;;;23.24;54.56;100126.47;5032815;28;20095;-65
2022/07/05 03:06:36;;;;;;;10.45;4.93;;;;;;;23.23;54.46;100118.50;5034135;28;20041;-64
2022/07/05 03:09:01;;;;;;;4.93;3.83;;;;;;;23.31;54.50;100138.22;5034408;28;20017;-64
2022/07/05 03:11:27;;;;;;;6.22;4.03;;;;;;;23.30;54.15;100131.06;5032790;28;20490;-64
2022/07/05 03:13:52;;;;;;;5.82;4.45;;;;;;;23.33;54.42;100130.63;5030936;28;20036;-64
2022/07/05 03:16:18;;;;;;;7.90;4.10;;;;;;;23.35;54.20;100128.53;5038978;28;20032;-64
2022/07/05 03:18:43;;;;;;;7.43;4.60;;;;;;;23.37;54.01;100125.53;5030222;28;20029;-64
2022/07/05 03:21:08;;;;;;;13.60;5.18;;;;;;;23.34;54.22;100106.84;5036203;28;20069;-63
2022/07/05 03:23:34;;;;;;;12.20;4.68;;;;;;;23.42;54.32;100112.03;5037820;28;20032;-64
2022/07/05 03:26:00;;;;;;;17.27;4.25;;;;;;;23.43;54.39;100114.56;5040293;28;20025;-64
2022/07/05 03:28:25;;;;;;;9.02;4.30;;;;;;;23.45;53.83;100108.84;5035105;28;20033;-64
2022/07/05 03:30:50;;;;;;;8.65;4.53;;;;;;;23.49;53.68;100102.72;5035236;28;20029;-65
2022/07/05 03:33:16;;;;;;;5.93;3.90;;;;;;;23.50;53.50;100092.56;5031116;28;20025;-64
2022/07/05 03:35:41;;;;;;;13.27;3.85;;;;;;;23.58;53.05;100104.13;5033970;28;20029;-65
2022/07/05 03:38:07;;;;;;;7.82;3.85;;;;;;;23.63;52.55;100093.31;5042502;28;20541;-63
2022/07/05 03:40:32;;;;;;;9.90;4.28;;;;;;;23.72;52.52;100082.91;5040350;28;20029;-65
2022/07/05 03:42:58;;;;;;;10.82;4.20;;;;;;;23.66;52.26;100067.38;5032007;28;20515;-63
2022/07/05 03:45:23;;;;;;;14.07;4.30;;;;;;;23.79;52.20;100079.06;5032200;28;20025;-65
2022/07/05 03:47:49;;;;;;;10.70;3.97;;;;;;;23.89;52.18;100078.56;5036352;28;20025;-65
2022/07/05 03:50:14;;;;;;;11.13;4.97;;;;;;;23.98;52.04;100083.53;5047948;28;20025;-65
2022/07/05 03:52:40;;;;;;;10.98;4.68;;;;;;;24.06;52.09;100074.19;5035462;28;20033;-64
2022/07/05 03:55:05;;;;;;;13.80;4.68;;;;;;;24.06;51.95;100066.78;5034679;28;20021;-64
2022/07/05 03:57:31;;;;;;;14.45;4.57;;;;;;;24.16;52.18;100075.34;5037331;28;20037;-65
2022/07/05 03:59:56;;;;;;;10.73;3.78;;;;;;;24.28;51.86;100067.19;5034735;28;20040;-64
2022/07/05 04:02:22;;;;;;;6.63;3.70;;;;;;;24.48;51.67;100086.13;5040963;28;20040;-64
2022/07/05 04:04:48;;;;;;;12.27;3.97;;;;;;;24.59;51.40;100086.19;5033977;28;20053;-64
2022/07/05 04:07:14;;;;;;;12.43;4.38;;;;;;;24.64;51.49;100082.78;5034329;28;20040;-65
2022/07/05 04:09:39;;;;;;;8.60;3.75;;;;;;;24.77;51.13;100083.44;5036616;28;20104;-64
2022/07/05 04:12:05;;;;;;;5.35;3.90;;;;;;;24.78;51.06;100079.63;5042034;28;20029;-64
2022/07/05 04:14:31;;;;;;;8.57;4.03;;;;;;;24.87;51.22;100083.72;5034987;28;20068;-64
2022/07/05 04:16:56;;;;;;;8.73;4.00;;;;;;;24.88;51.32;100079.06;5035387;28;20025;-63
2022/07/05 04:19:22;;;;;;;5.75;3.50;;;;;;;24.97;51.24;100084.00;5042387;28;20034;-65
2022/07/05 04:21:47;;;;;;;6.95;3.60;;;;;;;24.93;51.25;100071.81;5032035;28;20018;-64
2022/07/05 04:24:13;;;;;;;9.85;3.15;;;;;;;25.06;51.39;100084.50;5037655;28;20046;-65
2022/07/05 04:26:38;;;;;;;6.70;3.40;;;;;;;25.11;51.35;100081.91;5029791;28;20037;-63
2022/07/05 04:29:04;;;;;;;7.10;3.60;;;;;;;25.13;51.47;100080.59;5030235;28;20037;-65
2022/07/05 04:31:29;;;;;;;8.68;3.83;;;;;;;25.15;51.46;100080.38;5029872;28;20040;-65
2022/07/05 04:33:55;;;;;;;10.38;3.60;;;;;;;25.19;51.66;100076.06;5028659;28;20027;-64
2022/07/05 04:36:20;;;;;;;9.02;3.65;;;;;;;25.25;51.84;100083.38;5032271;28;20057;-64
2022/07/05 04:38:46;;;;;;;10.80;4.00;;;;;;;25.30;52.14;100080.75;5027061;28;20488;-64
2022/07/05 04:41:11;;;;;;;10.00;4.00;;;;;;;25.40;52.00;100084.63;5032135;28;20026;-65
2022/07/05 04:43:36;;;;;;;13.63;3.70;;;;;;;25.54;51.64;100088.81;5028571;28;20041;-65
2022/07/05 04:46:02;;;;;;;7.93;3.42;;;;;;;25.61;51.44;100091.47;5032911;28;20024;-65
2022/07/05 04:48:27;;;;;;;9.48;3.40;;;;;;;25.65;51.23;100095.41;5039009;28;20029;-64
2022/07/05 04:50:53;;;;;;;5.63;3.50;;;;;;;25.78;51.11;100104.25;5033992;28;20033;-63
2022/07/05 04:53:18;;;;;;;9.88;3.55;;;;;;;25.86;51.14;100103.06;5034936;28;20049;-63
2022/07/05 04:55:44;;;;;;;7.38;3.47;;;;;;;25.91;50.97;100114.19;5036339;28;20029;-64
2022/07/05 04:58:10;;;;;;;7.07;3.67;;;;;;;25.95;51.14;100104.38;5052448;28;20029;-59
2022/07/05 05:00:36;;;;;;;7.88;3.50;;;;;;;26.01;50.88;100109.78;5049766;28;20017;-58
2022/07/05 05:03:01;;;;;;;9.40;3.38;;;;;;;26.06;50.83;100118.13;5040950;28;20111;-60
2022/07/05 05:05:26;;;;;;;9.00;3.20;;;;;;;26.10;51.00;100121.25;5043089;28;20037;-59
2022/07/05 05:07:52;;;;;;;5.55;3.08;;;;;;;26.12;50.81;100117.19;5040745;28;20025;-58
2022/07/05 05:10:17;;;;;;;5.88;3.33;;;;;;;26.14;51.03;100122.44;5043223;28;20104;-58
2022/07/05 05:12:43;;;;;;;8.32;3.45;;;;;;;26.15;51.10;100124.13;5048099;28;20021;-58
2022/07/05 05:15:09;;;;;;;4.28;3.22;;;;;;;26.13;50.92;100120.78;5032161;28;20160;-60
2022/07/05 05:17:43;;;;;;;6.30;3.30;;;;;;;26.19;50.84;100128.91;5032567;28;20040;-58
2022/07/05 05:20:16;;;;;;;13.40;4.57;;;;;;;26.22;50.92;100133.91;5037584;28;20036;-58
2022/07/05 05:22:43;;;;;;;9.65;4.10;;;;;;;26.21;51.12;100137.75;5039328;28;20437;-58
2022/07/05 05:25:09;;;;;;;7.35;3.20;;;;;;;26.23;51.21;100140.25;5034799;28;20033;-58
2022/07/05 05:27:39;;;;;;;8.15;3.13;;;;;;;26.30;51.50;100141.81;5032215;28;20495;-60
2022/07/05 05:30:05;;;;;;;6.50;3.75;;;;;;;26.30;51.54;100141.81;5049172;28;20561;-61
2022/07/05 05:32:31;;;;;;;6.95;3.80;;;;;;;26.34;51.75;100153.16;5047387;28;20037;-60
2022/07/05 05:34:56;;;;;;;5.50;3.17;;;;;;;26.35;51.71;100130.91;5049346;28;20029;-63
2022/07/05 05:37:22;;;;;;;7.90;3.40;;;;;;;26.48;51.87;100143.59;5042709;28;20400;-63
2022/07/05 05:39:47;;;;;;;7.72;3.03;;;;;;;26.56;51.84;100145.94;5049396;28;20021;-64
2022/07/05 05:42:13;;;;;;;9.93;3.55;;;;;;;26.59;51.89;100139.16;5049369;28;20104;-63
2022/07/05 05:44:38;;;;;;;5.65;3.03;;;;;;;26.62;52.15;100130.41;5034613;28;20064;-62
2022/07/05 05:47:04;;;;;;;9.45;2.97;;;;;;;26.62;52.36;100130.41;5045134;28;20033;-64
2022/07/05 05:49:29;;;;;;;7.10;3.00;;;;;;;26.64;52.76;100144.78;5042143;28;20403;-64
2022/07/05 05:51:55;;;;;;;7.15;2.95;;;;;;;26.67;53.07;100142.38;5032583;28;20112;-63
2022/07/05 05:54:20;;;;;;;7.80;3.03;;;;;;;26.70;53.64;100149.31;5049467;28;20593;-64
2022/07/05 05:56:46;;;;;;;7.20;2.67;;;;;;;26.67;53.78;100150.66;5033140;28;20081;-64
2022/07/05 05:59:11;;;;;;;7.63;3.22;;;;;;;26.58;53.96;100134.69;5045359;28;20087;-62
2022/07/05 06:01:36;;;;;;;4.93;2.83;;;;;;;26.62;54.07;100135.91;5034089;28;20033;-63
2022/07/05 06:04:02;;;;;;;5.03;2.38;;;;;;;26.64;54.03;100136.53;5037226;28;20642;-62
2022/07/05 06:06:27;;;;;;;6.82;2.75;;;;;;;26.67;54.11;100131.38;5051553;28;20745;-64
2022/07/05 06:08:53;;;;;;;6.43;2.70;;;;;;;26.70;54.28;100136.41;5039349;28;20032;-65
2022/07/05 06:11:18;;;;;;;8.75;2.47;;;;;;;26.58;54.23;100101.69;5031670;28;20480;-63
2022/07/05 06:13:44;;;;;;;5.07;2.78;;;;;;;26.74;54.49;100123.81;5033434;28;20051;-63
2022/07/05 06:16:09;;;;;;;11.20;3.03;;;;;;;26.81;54.60;100132.75;5039208;28;20028;-62
2022/07/05 06:18:35;;;;;;;8.02;2.70;;;;;;;26.85;54.71;100127.63;5047379;28;20399;-64
2022/07/05 06:21:01;;;;;;;3.65;2.40;;;;;;;26.74;54.55;100114.72;5036929;28;20037;-63
2022/07/05 06:23:26;;;;;;;5.50;2.55;;;;;;;26.87;54.60;100131.78;5034340;28;20036;-64
2022/07/05 06:25:52;;;;;;;4.20;2.50;;;;;;;26.88;54.42;100121.59;5037476;28;20033;-63
2022/07/05 06:28:17;;;;;;;4.00;1.98;;;;;;;27.05;54.61;100126.06;5043771;28;20030;-64
2022/07/05 06:30:43;;;;;;;7.30;2.47;;;;;;;27.25;54.36;100126.53;5040905;28;20056;-63
2022/07/05 06:33:08;;;;;;;5.63;2.63;;;;;;;27.50;53.05;100129.72;5045900;28;20528;-63
2022/07/05 06:35:34;;;;;;;9.52;2.95;;;;;;;27.87;52.06;100136.47;5046303;28;20026;-63
2022/07/05 06:38:04;;;;;;;5.10;3.28;;;;;;;28.09;51.46;100131.00;5038264;28;20111;-64
2022/07/05 06:40:31;;;;;;;8.07;2.05;;;;;;;28.33;50.24;100129.69;5044763;28;20036;-64
2022/07/05 06:42:59;;;;;;;3.53;2.53;;;;;;;28.57;49.86;100122.06;5052616;28;20174;-63
2022/07/05 06:45:26;;;;;;;7.47;2.30;;;;;;;28.78;49.44;100124.81;5051325;28;20037;-63
2022/07/05 06:47:56;;;;;;;4.70;2.55;;;;;;;28.97;48.54;100114.25;5038764;28;20029;-64
2022/07/05 06:50:22;;;;;;;4.63;2.47;;;;;;;29.16;48.48;100116.44;5028728;28;20033;-64
2022/07/05 06:52:48;;;;;;;4.38;2.70;;;;;;;29.38;46.71;100116.38;5038736;28;20146;-63
2022/07/05 06:55:13;;;;;;;6.15;2.60;;;;;;;29.56;46.44;100116.84;5038798;28;20029;-63
2022/07/05 06:57:38;;;;;;;6.13;2.50;;;;;;;29.66;45.89;100111.41;5036274;28;20037;-65
2022/07/05 07:00:05;;;;;;;8.05;2.50;;;;;;;29.88;45.88;100108.53;5038704;28;20056;-64
2022/07/05 07:02:31;;;;;;;5.00;2.70;;;;;;;30.05;45.11;100114.78;5031072;28;20060;-64
2022/07/05 07:04:56;;;;;;;6.93;2.55;;;;;;;30.22;43.08;100102.47;5043327;28;20440;-64
2022/07/05 07:10:06;;;;;;;8.90;2.55;;;;;;;30.49;42.93;100105.09;5030265;28;20036;-63
2022/07/05 07:12:31;;;;;;;10.48;3.15;;;;;;;30.65;42.84;100106.84;5030719;28;20025;-63
2022/07/05 07:14:57;;;;;;;5.20;2.70;;;;;;;30.74;42.06;100096.09;5030459;28;20104;-63
2022/07/05 07:17:24;;;;;;;4.60;2.28;;;;;;;30.96;41.51;100113.34;5030558;28;20112;-63
2022/07/05 07:19:49;;;;;;;4.45;2.88;;;;;;;31.01;40.20;100122.50;5040171;28;20813;-63
2022/07/05 07:22:15;;;;;;;12.30;3.00;;;;;;;31.05;39.69;100114.50;5049974;28;20125;-63
2022/07/05 07:24:40;;;;;;;4.13;2.55;;;;;;;31.11;38.70;100114.22;5042224;28;20104;-63
2022/07/05 07:27:07;;;;;;;13.32;3.30;;;;;;;31.19;39.24;100115.63;5049610;28;20021;-62
2022/07/05 07:29:37;;;;;;;3.45;2.67;;;;;;;31.33;39.10;100119.59;5049320;28;20036;-64
2022/07/05 07:32:05;;;;;;;3.75;2.95;;;;;;;31.32;35.70;100096.56;5035372;28;20033;-63
2022/07/05 07:34:31;;;;;;;5.00;3.28;;;;;;;31.39;34.95;100102.66;5029509;28;20029;-64
2022/07/05 07:36:57;;;;;;;5.30;2.95;;;;;;;31.37;35.19;100107.66;5042490;28;20032;-64
2022/07/05 07:39:23;;;;;;;3.03;2.72;;;;;;;31.44;35.37;100116.56;5037564;28;20022;-63
2022/07/05 07:41:49;;;;;;;8.13;3.15;;;;;;;31.47;36.45;100123.47;5029247;28;20021;-64
2022/07/05 07:44:15;;;;;;;8.32;2.78;;;;;;;31.42;36.84;100109.59;5047302;28;20059;-63
2022/07/05 07:46:41;;;;;;;6.18;3.38;;;;;;;31.32;37.03;100104.88;5031785;28;20034;-64
2022/07/05 07:49:10;;;;;;;3.13;2.80;;;;;;;31.39;36.77;100116.53;5029128;28;20035;-63
2022/07/05 07:51:37;;;;;;;4.18;2.33;;;;;;;31.36;36.53;100085.75;5029180;28;20026;-63
2022/07/05 07:54:03;;;;;;;5.00;3.17;;;;;;;31.45;36.09;100098.78;5028788;28;21028;-63
2022/07/05 07:56:28;;;;;;;5.18;2.90;;;;;;;31.50;36.47;100100.75;5029180;28;20037;-62
2022/07/05 07:58:54;;;;;;;5.30;2.80;;;;;;;31.46;36.49;100069.94;5029088;28;20108;-62
2022/07/05 08:01:20;;;;;;;5.82;2.45;;;;;;;31.67;36.34;100088.28;5028892;28;20049;-63
2022/07/05 08:03:45;;;;;;;3.00;2.70;;;;;;;31.73;36.55;100069.69;5046406;28;20036;-63
2022/07/05 08:06:12;;;;;;;9.95;3.20;;;;;;;32.00;37.55;100084.94;5047073;28;20108;-63
2022/07/05 08:08:38;;;;;;;11.98;3.15;;;;;;;32.10;38.34;100093.25;5048718;28;20029;-64
2022/07/05 08:11:05;;;;;;;6.22;2.65;;;;;;;32.14;38.20;100086.00;5033251;28;20029;-64
2022/07/05 08:13:31;;;;;;;7.20;2.50;;;;;;;32.23;38.05;100083.47;5028741;28;20029;-64
2022/07/05 08:15:57;;;;;;;3.90;2.40;;;;;;;32.07;37.68;100048.53;5028784;28;20468;-65
2022/07/05 08:24:10;;;;;;;4.65;2.45;;;;;;;32.33;38.60;100070.44;4986607;28;20061;-64
2022/07/05 08:26:37;;;;;;;6.85;2.75;;;;;;;32.29;38.44;100058.22;5031430;28;20041;-64
2022/07/05 08:29:05;;;;;;;6.45;2.80;;;;;;;32.25;38.44;100070.16;5030931;28;20036;-63
2022/07/05 08:31:33;;;;;;;5.32;3.00;;;;;;;32.19;38.15;100066.56;5036379;28;20029;-63
2022/07/05 08:33:58;;;;;;;7.80;2.70;;;;;;;32.11;38.46;100058.00;5048201;28;20532;-64
2022/07/05 08:36:24;;;;;;;5.28;2.70;;;;;;;32.14;38.98;100071.31;5043738;28;20116;-64
2022/07/05 08:38:50;;;;;;;5.40;2.95;;;;;;;32.06;38.51;100069.94;5039255;28;20457;-63
2022/07/05 08:41:19;;;;;;;3.60;2.65;;;;;;;31.98;38.88;100067.72;5049108;28;20025;-63
2022/07/05 08:43:46;;;;;;;5.78;2.50;;;;;;;31.95;38.63;100075.78;5045671;28;20029;-64
2022/07/05 08:46:14;;;;;;;8.30;2.60;;;;;;;31.91;39.17;100069.97;5044740;28;20028;-63
2022/07/05 08:48:43;;;;;;;8.23;2.90;;;;;;;31.84;38.90;100065.81;5049132;28;20041;-64
2022/07/05 08:51:23;;;;;;;7.13;3.30;;;;;;;31.80;38.37;100064.66;5046561;28;20123;-63
2022/07/05 08:53:50;;;;;;;7.43;3.40;;;;;;;31.79;38.16;100061.06;5046203;28;20045;-63
2022/07/05 08:56:17;;;;;;;6.10;3.15;;;;;;;31.76;37.92;100061.59;5044185;28;20033;-63
2022/07/05 08:58:43;;;;;;;3.72;2.85;;;;;;;31.72;37.97;100056.94;5029135;28;20014;-63
2022/07/05 09:01:10;;;;;;;4.40;3.00;;;;;;;31.70;37.76;100059.13;5028882;28;20075;-63
2022/07/05 09:03:42;;;;;;;7.13;2.90;;;;;;;31.71;36.97;100056.09;5030499;28;20042;-64
2022/07/05 09:06:10;;;;;;;5.25;3.10;;;;;;;31.68;37.08;100051.09;5048923;28;20033;-63
2022/07/05 09:08:40;;;;;;;5.53;2.97;;;;;;;31.70;37.34;100061.91;5049225;28;20108;-64
2022/07/05 09:11:13;;;;;;;3.95;2.92;;;;;;;31.67;37.56;100056.91;5037072;28;20460;-65
2022/07/05 09:13:41;;;;;;;4.20;2.97;;;;;;;31.70;37.55;100065.53;5039015;28;20087;-64
2022/07/05 09:16:07;;;;;;;6.60;3.35;;;;;;;31.69;37.64;100063.84;5031631;28;20542;-63
2022/07/05 09:18:49;;;;;;;3.50;2.65;;;;;;;31.72;37.70;100062.47;5029006;28;20045;-63
2022/07/05 09:21:22;;;;;;;5.65;3.00;;;;;;;31.82;37.84;100062.50;5028688;28;20531;-63
2022/07/05 09:23:57;;;;;;;4.30;3.00;;;;;;;31.94;38.00;100069.41;5028944;28;20128;-63
2022/07/05 09:26:33;;;;;;;3.83;2.60;;;;;;;32.02;37.67;100063.25;5028844;28;20034;-64
2022/07/05 09:28:59;;;;;;;4.03;2.90;;;;;;;32.07;37.21;100068.81;5033993;28;20427;-64
2022/07/05 09:31:30;;;;;;;4.78;3.00;;;;;;;32.13;37.53;100062.16;5028898;28;20049;-65
2022/07/05 09:34:04;;;;;;;4.72;3.55;;;;;;;32.25;36.06;100064.63;5050003;28;20033;-65
2022/07/05 09:36:49;;;;;;;5.80;3.80;;;;;;;32.24;36.47;100061.00;5033916;28;20095;-65
2022/07/05 09:39:14;;;;;;;5.63;3.53;;;;;;;32.23;35.89;100062.13;5039599;28;20087;-63
2022/07/05 09:41:40;;;;;;;3.80;3.50;;;;;;;32.20;35.98;100059.06;5032895;28;20037;-63
2022/07/05 09:44:05;;;;;;;7.47;3.70;;;;;;;32.18;36.12;100047.44;5045219;28;20056;-63
2022/07/05 09:46:32;;;;;;;8.10;3.40;;;;;;;32.26;35.68;100060.72;5052045;28;20025;-64
2022/07/05 09:48:57;;;;;;;3.38;2.85;;;;;;;32.29;35.14;100052.66;5052085;28;20604;-64
2022/07/05 09:51:23;;;;;;;3.95;3.42;;;;;;;32.39;35.44;100058.22;5046286;28;20029;-64
2022/07/05 09:53:51;;;;;;;4.22;3.08;;;;;;;32.49;35.06;100065.66;5032047;28;20053;-64
2022/07/05 09:56:17;;;;;;;4.45;3.15;;;;;;;32.66;35.18;100063.38;5037180;28;20029;-64
2022/07/05 09:58:44;;;;;;;7.30;3.25;;;;;;;32.70;34.68;100053.34;5050534;28;20048;-64
2022/07/05 10:01:26;;;;;;;3.95;2.92;;;;;;;32.87;34.63;100059.41;5041478;28;20066;-64
2022/07/05 10:03:56;;;;;;;4.25;3.17;;;;;;;32.93;34.89;100049.91;5051825;28;20021;-64
2022/07/05 10:06:25;;;;;;;5.13;3.13;;;;;;;33.16;34.52;100070.59;5051799;28;20091;-64
2022/07/05 10:08:53;;;;;;;9.13;3.40;;;;;;;33.18;34.73;100051.69;5051960;28;20483;-65
2022/07/05 10:11:20;;;;;;;2.75;2.55;;;;;;;33.24;34.60;100050.53;5051546;28;20033;-64
2022/07/05 10:13:50;;;;;;;6.75;3.13;;;;;;;33.33;34.81;100060.75;5051691;28;20033;-64
2022/07/05 10:16:17;;;;;;;3.75;2.60;;;;;;;33.39;35.21;100059.63;5038519;28;20041;-64
2022/07/05 10:18:44;;;;;;;5.85;3.28;;;;;;;33.43;35.29;100059.91;5031778;28;20024;-64
2022/07/05 10:21:14;;;;;;;3.40;2.90;;;;;;;33.53;34.71;100059.81;5050983;28;20020;-64
2022/07/05 10:23:53;;;;;;;5.35;3.05;;;;;;;33.50;34.39;100055.63;5032109;28;20468;-64
2022/07/05 10:26:20;;;;;;;4.80;2.63;;;;;;;33.62;34.09;100058.06;5031617;28;20029;-64
2022/07/05 10:28:51;;;;;;;5.93;3.00;;;;;;;33.69;34.23;100080.81;5048559;28;20029;-64
2022/07/05 10:31:17;;;;;;;4.43;3.13;;;;;;;33.74;34.74;100072.41;5051169;28;20060;-64
2022/07/05 10:33:44;;;;;;;13.00;3.45;;;;;;;33.74;36.28;100064.91;5048671;28;20052;-64
2022/07/05 10:36:11;;;;;;;31.70;3.72;;;;;;;33.59;36.93;100083.69;5040970;28;20087;-64
2022/07/05 10:38:43;;;;;;;62.30;5.47;;;;;;;33.59;37.88;100103.16;5038373;28;20446;-64
2022/07/05 10:41:12;;;;;;;75.50;6.68;;;;;;;33.31;38.22;100112.22;5041800;28;20029;-64
2022/07/05 10:43:37;;;;;;;58.45;5.85;;;;;;;32.95;38.83;100114.41;5029609;28;20100;-64
2022/07/05 10:46:07;;;;;;;65.65;5.70;;;;;;;32.60;39.69;100131.19;5046617;28;20028;-64
2022/07/05 10:48:33;;;;;;;53.28;5.15;;;;;;;32.29;40.37;100146.22;5048079;28;20033;-63
2022/07/05 10:51:15;;;;;;;58.55;5.40;;;;;;;31.85;40.99;100145.97;5035934;28;20494;-63
2022/07/05 10:53:40;;;;;;;40.65;4.90;;;;;;;31.46;41.66;100183.63;5034425;28;20041;-64
2022/07/05 10:56:05;;;;;;;36.70;5.03;;;;;;;30.97;42.81;100198.97;5030897;28;20075;-63
2022/07/05 10:58:37;;;;;;;57.38;5.93;;;;;;;30.49;44.18;100213.91;5051107;28;20021;-64
2022/07/05 11:01:12;;;;;;;56.50;6.88;;;;;;;30.10;45.13;100214.41;5046674;28;20698;-63
2022/07/05 11:03:57;;;;;;;39.72;4.55;;;;;;;29.79;45.88;100193.13;5048775;28;20087;-64
2022/07/05 11:06:31;;;;;;;14.38;2.30;;;;;;;29.56;46.18;100185.94;5030669;28;20101;-64
2022/07/05 11:08:59;;;;;;;10.90;2.45;;;;;;;29.32;46.59;100181.84;5045409;28;20025;-64
2022/07/05 11:11:27;;;;;;;23.98;2.65;;;;;;;29.29;46.68;100175.97;5041448;28;20041;-64
2022/07/05 11:13:58;;;;;;;13.02;1.80;;;;;;;28.92;47.03;100150.94;5044360;28;20582;-64
2022/07/05 11:16:29;;;;;;;17.17;2.15;;;;;;;28.95;47.80;100174.47;5045241;28;20460;-64
2022/07/05 11:19:16;;;;;;;17.35;2.17;;;;;;;28.69;48.72;100175.22;5044106;28;20398;-63
2022/07/05 11:22:05;;;;;;;11.80;2.42;;;;;;;28.46;49.50;100155.03;5032126;28;20365;-64
2022/07/05 11:24:33;;;;;;;11.75;2.58;;;;;;;28.30;50.11;100149.50;5031465;28;20025;-63
2022/07/05 11:26:59;;;;;;;9.35;2.28;;;;;;;28.26;50.57;100153.88;5050483;28;20041;-64
2022/07/05 11:30:00;;;;;;;11.25;2.25;;;;;;;28.25;50.81;100154.97;5050337;28;20122;-64
2022/07/05 11:32:28;;;;;;;7.93;1.92;;;;;;;28.13;50.98;100160.59;5028014;28;20029;-64